createdAt,value
2018-02-27T00:00:34.051Z,-4.10
2018-02-27T00:03:00.903Z,-4.10
2018-02-27T00:05:26.921Z,-4.20
2018-02-27T00:07:52.938Z,-4.20
2018-02-27T00:10:18.986Z,-4.20
2018-02-27T00:12:44.986Z,-4.20
2018-02-27T00:15:11.743Z,-4.30
2018-02-27T00:17:38.510Z,-4.30
2018-02-27T00:20:07.612Z,-4.30
2018-02-27T00:22:33.665Z,-4.30
2018-02-27T00:24:59.668Z,-4.40
2018-02-27T00:27:26.451Z,-4.50
2018-02-27T00:29:52.457Z,-4.50
2018-02-27T00:32:19.217Z,-4.60
2018-02-27T00:34:46.939Z,-4.60
2018-02-27T00:37:12.981Z,-4.60
2018-02-27T00:39:39.004Z,-4.50
2018-02-27T00:42:07.149Z,-4.60
2018-02-27T00:44:33.376Z,-4.60
2018-02-27T00:46:59.585Z,-4.60
2018-02-27T00:49:25.801Z,-4.60
2018-02-27T00:51:52.000Z,-4.60
2018-02-27T00:54:18.192Z,-4.60
2018-02-27T00:56:44.413Z,-4.60
2018-02-27T00:59:11.333Z,-4.50
2018-02-27T01:01:37.553Z,-4.50
2018-02-27T01:04:03.730Z,-4.50
2018-02-27T01:06:29.942Z,-4.60
2018-02-27T01:08:56.192Z,-4.60
2018-02-27T01:11:22.382Z,-4.50
2018-02-27T01:13:48.607Z,-4.60
2018-02-27T01:16:15.649Z,-4.60
2018-02-27T01:18:41.848Z,-4.70
2018-02-27T01:21:08.033Z,-4.70
2018-02-27T01:23:34.288Z,-4.80
2018-02-27T01:26:01.245Z,-4.80
2018-02-27T01:28:27.453Z,-4.70
2018-02-27T01:30:54.844Z,-4.80
2018-02-27T01:33:21.040Z,-4.80
2018-02-27T01:35:47.252Z,-4.80
2018-02-27T01:38:13.452Z,-4.80
2018-02-27T01:40:39.661Z,-4.90
2018-02-27T01:43:05.859Z,-4.90
2018-02-27T01:45:32.104Z,-4.90
2018-02-27T01:47:59.024Z,-4.80
2018-02-27T01:50:25.200Z,-4.80
2018-02-27T01:52:51.429Z,-4.90
2018-02-27T01:55:18.373Z,-4.80
2018-02-27T01:57:44.608Z,-4.90
2018-02-27T02:00:10.828Z,-4.90
2018-02-27T02:02:37.024Z,-4.90
2018-02-27T02:05:03.211Z,-4.90
2018-02-27T02:07:29.418Z,-5.00
2018-02-27T02:09:55.686Z,-5.00
2018-02-27T02:12:21.892Z,-5.10
2018-02-27T02:14:48.083Z,-5.10
2018-02-27T02:17:14.292Z,-5.20
2018-02-27T02:19:40.530Z,-5.20
2018-02-27T02:22:06.720Z,-5.10
2018-02-27T02:24:32.958Z,-5.10
2018-02-27T02:26:59.152Z,-5.00
2018-02-27T02:29:25.381Z,-5.10
2018-02-27T02:31:51.589Z,-5.20
2018-02-27T02:34:18.525Z,-5.10
2018-02-27T02:36:44.725Z,-5.10
2018-02-27T02:39:10.935Z,-5.00
2018-02-27T02:41:37.140Z,-5.00
2018-02-27T02:44:03.332Z,-5.00
2018-02-27T02:46:29.550Z,-5.00
2018-02-27T02:48:56.492Z,-5.00
2018-02-27T02:51:23.469Z,-5.10
2018-02-27T02:53:50.452Z,-5.10
2018-02-27T02:56:16.664Z,-5.10
2018-02-27T02:58:42.839Z,-5.20
2018-02-27T03:01:09.026Z,-5.10
2018-02-27T03:03:35.996Z,-5.10
2018-02-27T03:06:02.954Z,-5.00
2018-02-27T03:08:29.151Z,-5.00
2018-02-27T03:10:55.393Z,-5.00
2018-02-27T03:13:21.613Z,-5.00
2018-02-27T03:15:48.516Z,-4.90
2018-02-27T03:18:14.723Z,-5.00
2018-02-27T03:20:40.931Z,-5.00
2018-02-27T03:23:07.184Z,-5.00
2018-02-27T03:25:34.110Z,-5.10
2018-02-27T03:28:01.048Z,-5.20
2018-02-27T03:30:27.231Z,-5.20
2018-02-27T03:32:53.409Z,-5.20
2018-02-27T03:35:19.604Z,-5.20
2018-02-27T03:37:46.544Z,-5.40
2018-02-27T03:40:13.469Z,-5.40
2018-02-27T03:42:39.681Z,-5.50
2018-02-27T03:45:05.886Z,-5.40
2018-02-27T03:47:32.117Z,-5.40
2018-02-27T03:49:59.056Z,-5.30
2018-02-27T03:52:25.254Z,-5.30
2018-02-27T03:54:51.482Z,-5.50
2018-02-27T03:57:17.692Z,-5.50
2018-02-27T03:59:44.649Z,-5.60
2018-02-27T04:02:10.864Z,-5.60
2018-02-27T04:04:37.064Z,-5.60
2018-02-27T04:07:03.273Z,-5.50
2018-02-27T04:09:30.244Z,-5.70
2018-02-27T04:11:57.315Z,-5.70
2018-02-27T04:14:23.539Z,-5.70
2018-02-27T04:16:49.824Z,-5.60
2018-02-27T04:19:16.059Z,-5.50
2018-02-27T04:21:42.251Z,-5.60
2018-02-27T04:24:08.452Z,-5.50
2018-02-27T04:26:34.657Z,-5.60
2018-02-27T04:29:00.872Z,-5.50
2018-02-27T04:31:27.067Z,-5.70
2018-02-27T04:33:53.288Z,-5.60
2018-02-27T04:36:19.548Z,-5.60
2018-02-27T04:38:45.765Z,-5.80
2018-02-27T04:41:11.972Z,-5.80
2018-02-27T04:43:38.932Z,-5.70
2018-02-27T04:46:05.153Z,-5.70
2018-02-27T04:48:32.128Z,-5.80
2018-02-27T04:50:59.780Z,-5.60
2018-02-27T04:53:25.992Z,-5.90
2018-02-27T04:55:52.224Z,-5.80
2018-02-27T04:58:19.608Z,-5.80
2018-02-27T05:00:46.517Z,-5.80
2018-02-27T05:03:12.745Z,-5.80
2018-02-27T05:05:38.974Z,-5.80
2018-02-27T05:08:05.209Z,-5.80
2018-02-27T05:10:31.419Z,-5.70
2018-02-27T05:12:57.664Z,-5.70
2018-02-27T05:15:23.845Z,-5.70
2018-02-27T05:17:50.028Z,-5.80
2018-02-27T05:20:16.233Z,-5.90
2018-02-27T05:22:42.443Z,-5.80
2018-02-27T05:25:08.650Z,-5.70
2018-02-27T05:27:34.891Z,-5.70
2018-02-27T05:30:01.115Z,-5.70
2018-02-27T05:32:27.332Z,-5.70
2018-02-27T05:34:53.558Z,-5.70
2018-02-27T05:37:19.742Z,-5.80
2018-02-27T05:39:45.923Z,-5.80
2018-02-27T05:42:12.153Z,-5.90
2018-02-27T05:44:38.416Z,-6.00
2018-02-27T05:47:04.685Z,-6.10
2018-02-27T05:49:30.944Z,-6.10
2018-02-27T05:51:57.880Z,-6.20
2018-02-27T05:54:24.184Z,-6.20
2018-02-27T05:56:50.398Z,-6.20
2018-02-27T05:59:16.596Z,-6.10
2018-02-27T06:01:44.313Z,-6.10
2018-02-27T06:04:10.581Z,-6.10
2018-02-27T06:06:36.775Z,-6.00
2018-02-27T06:09:03.737Z,-5.90
2018-02-27T06:11:29.984Z,-6.00
2018-02-27T06:13:57.105Z,-5.90
2018-02-27T06:16:30.433Z,-5.90
2018-02-27T06:18:57.409Z,-5.90
2018-02-27T06:21:24.353Z,-5.90
2018-02-27T06:23:50.600Z,-5.90
2018-02-27T06:26:16.790Z,-6.00
2018-02-27T06:28:42.991Z,-6.00
2018-02-27T06:31:09.322Z,-6.00
2018-02-27T06:33:35.515Z,-6.00
2018-02-27T06:36:01.717Z,-5.90
2018-02-27T06:38:27.962Z,-5.80
2018-02-27T06:40:54.877Z,-5.80
2018-02-27T06:43:21.084Z,-5.80
2018-02-27T06:45:47.336Z,-5.50
2018-02-27T06:48:13.582Z,-5.70
2018-02-27T06:50:39.836Z,-5.90
2018-02-27T06:53:06.157Z,-6.00
2018-02-27T06:55:32.433Z,-6.00
2018-02-27T06:57:59.430Z,-5.90
2018-02-27T07:00:25.729Z,-6.00
2018-02-27T07:02:51.965Z,-6.00
2018-02-27T07:05:18.908Z,-6.00
2018-02-27T07:07:45.119Z,-6.00
2018-02-27T07:10:12.052Z,-5.80
2018-02-27T07:12:39.053Z,-5.80
2018-02-27T07:15:05.277Z,-5.90
2018-02-27T07:17:31.504Z,-5.80
2018-02-27T07:19:57.708Z,-5.60
2018-02-27T07:22:23.911Z,-5.60
2018-02-27T07:24:50.101Z,-5.60
2018-02-27T07:27:17.077Z,-5.40
2018-02-27T07:29:43.309Z,-5.40
2018-02-27T07:32:09.520Z,-5.40
2018-02-27T07:34:35.860Z,-5.30
2018-02-27T07:37:02.052Z,-5.20
2018-02-27T07:39:28.969Z,-5.20
2018-02-27T07:41:55.169Z,-5.30
2018-02-27T07:44:21.444Z,-5.30
2018-02-27T07:46:47.688Z,-5.30
2018-02-27T07:49:13.898Z,-5.40
2018-02-27T07:51:40.112Z,-5.50
2018-02-27T07:54:07.038Z,-5.50
2018-02-27T07:56:33.244Z,-5.60
2018-02-27T07:59:00.280Z,-5.40
2018-02-27T08:01:26.533Z,-5.30
2018-02-27T08:03:52.791Z,-5.50
2018-02-27T08:06:19.046Z,-5.20
2018-02-27T08:08:45.263Z,-5.00
2018-02-27T08:11:11.480Z,-4.80
2018-02-27T08:13:37.783Z,-4.80
2018-02-27T08:16:03.992Z,-4.60
2018-02-27T08:18:30.201Z,-4.50
2018-02-27T08:20:56.431Z,-4.30
2018-02-27T08:23:25.537Z,-4.20
2018-02-27T08:25:52.484Z,-3.70
2018-02-27T08:28:19.441Z,-3.50
2018-02-27T08:30:46.430Z,-3.00
2018-02-27T08:33:12.632Z,-3.10
2018-02-27T08:35:39.609Z,-2.70
2018-02-27T08:38:05.824Z,-2.70
2018-02-27T08:40:32.752Z,-2.10
2018-02-27T08:42:58.974Z,-2.10
2018-02-27T08:45:25.168Z,-1.70
2018-02-27T08:47:52.840Z,-1.40
2018-02-27T08:50:19.088Z,-1.50
2018-02-27T08:52:46.063Z,-1.60
2018-02-27T08:55:12.296Z,-1.60
2018-02-27T08:57:38.524Z,-1.50
2018-02-27T09:00:04.704Z,-1.10
2018-02-27T09:02:30.930Z,-1.20
2018-02-27T09:04:57.882Z,-1.50
2018-02-27T09:07:24.097Z,-1.50
2018-02-27T09:09:51.057Z,-1.40
2018-02-27T09:12:18.061Z,-0.90
2018-02-27T09:14:44.295Z,-0.90
2018-02-27T09:17:11.239Z,-0.50
2018-02-27T09:19:37.429Z,-0.50
2018-02-27T09:22:03.645Z,-0.20
2018-02-27T09:24:29.849Z,-0.50
2018-02-27T09:26:56.062Z,-0.80
2018-02-27T09:29:23.849Z,-1.00
2018-02-27T09:31:50.083Z,-1.10
2018-02-27T09:34:16.312Z,-1.00
2018-02-27T09:36:42.588Z,-1.00
2018-02-27T09:39:08.770Z,-0.60
2018-02-27T09:41:34.988Z,-0.50
2018-02-27T09:44:01.183Z,-0.60
2018-02-27T09:46:29.637Z,-0.80
2018-02-27T09:48:55.864Z,-0.50
2018-02-27T09:51:22.080Z,0.00
2018-02-27T09:53:49.905Z,0.00
2018-02-27T09:56:16.104Z,0.00
2018-02-27T09:58:43.085Z,1.00
2018-02-27T10:01:14.425Z,1.10
2018-02-27T10:03:41.360Z,1.20
2018-02-27T10:06:07.561Z,1.20
2018-02-27T10:08:33.745Z,0.70
2018-02-27T10:10:59.955Z,0.40
2018-02-27T10:13:26.147Z,0.50
2018-02-27T10:15:52.357Z,0.80
2018-02-27T10:18:20.064Z,1.00
2018-02-27T10:20:46.259Z,1.30
2018-02-27T10:23:12.485Z,1.00
2018-02-27T10:25:39.408Z,0.00
2018-02-27T10:28:05.648Z,0.00
2018-02-27T10:30:32.608Z,1.00
2018-02-27T10:32:58.871Z,0.90
2018-02-27T10:35:26.488Z,0.30
2018-02-27T10:37:52.686Z,0.60
2018-02-27T10:40:18.905Z,0.90
2018-02-27T10:42:45.160Z,1.30
2018-02-27T10:45:11.358Z,1.40
2018-02-27T10:47:38.291Z,0.60
2018-02-27T10:50:04.480Z,0.60
2018-02-27T10:52:32.233Z,0.60
2018-02-27T10:55:00.227Z,0.70
2018-02-27T10:57:26.433Z,0.70
2018-02-27T10:59:53.373Z,0.60
2018-02-27T11:02:19.577Z,0.60
2018-02-27T11:04:45.790Z,0.70
2018-02-27T11:07:11.984Z,0.50
2018-02-27T11:09:38.940Z,0.60
2018-02-27T11:12:10.193Z,0.50
2018-02-27T11:14:36.385Z,0.80
2018-02-27T11:17:02.654Z,0.90
2018-02-27T11:19:28.830Z,0.80
2018-02-27T11:21:55.768Z,0.80
2018-02-27T11:24:22.040Z,0.80
2018-02-27T11:26:48.300Z,0.80
2018-02-27T11:29:19.936Z,0.80
2018-02-27T11:31:46.892Z,1.00
2018-02-27T11:34:13.100Z,1.00
2018-02-27T11:36:39.292Z,0.90
2018-02-27T11:39:05.466Z,0.80
2018-02-27T11:41:32.406Z,0.70
2018-02-27T11:43:59.372Z,0.40
2018-02-27T11:46:29.772Z,0.40
2018-02-27T11:48:55.972Z,0.20
2018-02-27T11:51:22.917Z,0.50
2018-02-27T11:53:49.161Z,0.50
2018-02-27T11:56:16.112Z,0.20
2018-02-27T11:58:42.342Z,0.20
2018-02-27T12:01:08.572Z,0.30
2018-02-27T12:03:35.525Z,0.60
2018-02-27T12:06:05.003Z,0.60
2018-02-27T12:08:31.221Z,0.80
2018-02-27T12:10:57.448Z,0.90
2018-02-27T12:13:23.642Z,0.90
2018-02-27T12:15:50.085Z,1.50
2018-02-27T12:18:16.252Z,2.10
2018-02-27T12:20:43.202Z,2.10
2018-02-27T12:23:12.277Z,2.10
2018-02-27T12:25:40.506Z,1.50
2018-02-27T12:28:07.440Z,1.70
2018-02-27T12:30:33.463Z,1.70
2018-02-27T12:32:59.677Z,1.80
2018-02-27T12:35:25.909Z,1.90
2018-02-27T12:37:52.083Z,2.00
2018-02-27T12:40:18.286Z,1.90
2018-02-27T12:42:46.868Z,2.00
2018-02-27T12:45:13.848Z,1.30
2018-02-27T12:47:40.075Z,1.30
2018-02-27T12:50:06.296Z,1.50
2018-02-27T12:52:32.486Z,1.70
2018-02-27T12:54:58.716Z,1.70
2018-02-27T12:57:24.933Z,1.40
2018-02-27T12:59:57.306Z,1.20
2018-02-27T13:02:23.345Z,0.90
2018-02-27T13:04:50.162Z,0.00
2018-02-27T13:07:16.213Z,0.00
2018-02-27T13:09:42.225Z,-0.30
2018-02-27T13:12:09.026Z,-0.40
2018-02-27T13:14:35.781Z,-0.40
2018-02-27T13:17:05.301Z,-0.40
2018-02-27T13:19:31.553Z,-0.40
2018-02-27T13:21:57.726Z,-0.50
2018-02-27T13:24:24.682Z,-0.70
2018-02-27T13:26:50.904Z,-0.70
2018-02-27T13:29:17.857Z,-0.20
2018-02-27T13:31:44.092Z,-0.20
2018-02-27T13:34:15.096Z,0.20
2018-02-27T13:36:42.037Z,0.50
2018-02-27T13:39:08.969Z,0.50
2018-02-27T13:41:35.008Z,0.50
2018-02-27T13:44:01.236Z,0.50
2018-02-27T13:46:27.458Z,0.50
2018-02-27T13:48:53.680Z,0.30
2018-02-27T13:51:21.699Z,0.20
2018-02-27T13:53:47.881Z,0.30
2018-02-27T13:56:14.861Z,0.50
2018-02-27T13:58:41.041Z,0.40
2018-02-27T14:01:07.227Z,0.50
2018-02-27T14:03:33.447Z,0.20
2018-02-27T14:06:00.333Z,0.40
2018-02-27T14:08:27.315Z,0.50
2018-02-27T14:10:55.427Z,0.50
2018-02-27T14:13:22.391Z,0.80
2018-02-27T14:15:49.629Z,1.10
2018-02-27T14:18:15.725Z,1.10
2018-02-27T14:20:41.753Z,1.30
2018-02-27T14:23:07.985Z,1.20
2018-02-27T14:25:34.922Z,0.30
2018-02-27T14:28:01.100Z,0.30
2018-02-27T14:30:30.441Z,0.10
2018-02-27T14:32:56.614Z,-0.20
2018-02-27T14:35:22.831Z,-0.10
2018-02-27T14:37:49.013Z,0.30
2018-02-27T14:40:15.935Z,0.70
2018-02-27T14:42:42.272Z,0.70
2018-02-27T14:45:08.497Z,0.90
2018-02-27T14:47:40.281Z,1.20
2018-02-27T14:50:06.508Z,1.20
2018-02-27T14:52:32.924Z,1.60
2018-02-27T14:54:59.116Z,1.90
2018-02-27T14:57:25.355Z,2.00
2018-02-27T14:59:51.615Z,2.00
2018-02-27T15:02:17.856Z,1.90
2018-02-27T15:04:48.554Z,1.90
2018-02-27T15:07:14.765Z,1.80
2018-02-27T15:09:41.733Z,1.40
2018-02-27T15:12:08.669Z,1.50
2018-02-27T15:14:34.868Z,1.50
2018-02-27T15:17:01.131Z,1.50
2018-02-27T15:19:27.364Z,1.50
2018-02-27T15:21:53.605Z,1.20
2018-02-27T15:24:19.817Z,1.10
2018-02-27T15:26:46.754Z,0.20
2018-02-27T15:29:13.041Z,0.20
2018-02-27T15:31:39.324Z,-0.10
2018-02-27T15:34:05.505Z,-0.30
2018-02-27T15:36:32.457Z,-0.60
2018-02-27T15:38:59.509Z,-0.60
2018-02-27T15:41:25.771Z,-0.60
2018-02-27T15:43:52.001Z,-0.90
2018-02-27T15:46:19.996Z,-1.00
2018-02-27T15:48:50.525Z,-1.20
2018-02-27T15:51:17.436Z,-1.40
2018-02-27T15:53:43.679Z,-1.40
2018-02-27T15:56:09.910Z,-1.10
2018-02-27T15:58:36.077Z,-1.10
2018-02-27T16:01:02.301Z,-1.20
2018-02-27T16:03:28.531Z,-1.20
2018-02-27T16:05:54.771Z,-1.30
2018-02-27T16:08:21.012Z,-1.10
2018-02-27T16:10:47.260Z,-1.00
2018-02-27T16:13:15.422Z,-0.80
2018-02-27T16:15:41.642Z,-0.80
2018-02-27T16:18:07.952Z,-0.70
2018-02-27T16:20:34.221Z,-0.70
2018-02-27T16:23:00.484Z,-0.80
2018-02-27T16:25:26.701Z,-0.80
2018-02-27T16:27:52.983Z,-0.90
2018-02-27T16:30:19.198Z,-0.90
2018-02-27T16:32:45.392Z,-1.10
2018-02-27T16:35:11.609Z,-1.20
2018-02-27T16:37:37.776Z,-1.30
2018-02-27T16:40:03.989Z,-1.40
2018-02-27T16:42:30.924Z,-1.40
2018-02-27T16:44:57.870Z,-1.50
2018-02-27T16:47:24.860Z,-1.40
2018-02-27T16:49:56.003Z,-1.60
2018-02-27T16:52:22.957Z,-1.60
2018-02-27T16:54:50.320Z,-1.70
2018-02-27T16:57:17.269Z,-1.80
2018-02-27T16:59:44.230Z,-1.60
2018-02-27T17:02:10.544Z,-1.70
2018-02-27T17:04:37.113Z,-1.60
2018-02-27T17:07:03.352Z,-1.70
2018-02-27T17:09:29.573Z,-1.80
2018-02-27T17:11:55.842Z,-1.90
2018-02-27T17:14:22.281Z,-1.90
2018-02-27T17:16:48.508Z,-1.90
2018-02-27T17:19:14.724Z,-1.80
2018-02-27T17:21:41.705Z,-1.80
2018-02-27T17:24:08.707Z,-1.90
2018-02-27T17:26:34.985Z,-2.00
2018-02-27T17:29:01.956Z,-1.90
2018-02-27T17:31:28.188Z,-1.90
2018-02-27T17:33:54.377Z,-1.80
2018-02-27T17:36:20.641Z,-2.00
2018-02-27T17:38:46.832Z,-2.10
2018-02-27T17:41:13.020Z,-2.10
2018-02-27T17:43:39.319Z,-2.00
2018-02-27T17:46:08.581Z,-2.00
2018-02-27T17:48:34.868Z,-1.80
2018-02-27T17:51:01.100Z,-2.00
2018-02-27T17:53:27.305Z,-2.10
2018-02-27T17:55:54.416Z,-1.90
2018-02-27T17:58:20.615Z,-1.90
2018-02-27T18:00:46.905Z,-1.80
2018-02-27T18:03:13.241Z,-1.70
2018-02-27T18:05:39.463Z,-1.70
2018-02-27T18:08:05.653Z,-1.80
2018-02-27T18:10:31.868Z,-1.80
2018-02-27T18:12:58.069Z,-1.80
2018-02-27T18:15:25.150Z,-2.10
2018-02-27T18:17:51.349Z,-2.00
2018-02-27T18:20:17.702Z,-2.00
2018-02-27T18:22:44.733Z,-1.90
2018-02-27T18:25:11.827Z,-2.10
2018-02-27T18:27:38.778Z,-2.10
2018-02-27T18:30:05.169Z,-2.10
2018-02-27T18:32:31.364Z,-1.90
2018-02-27T18:34:57.576Z,-1.90
2018-02-27T18:37:24.570Z,-1.70
2018-02-27T18:39:50.818Z,-1.80
2018-02-27T18:42:17.758Z,-1.80
2018-02-27T18:44:43.992Z,-1.80
2018-02-27T18:47:10.933Z,-1.80
2018-02-27T18:49:37.173Z,-1.80
2018-02-27T18:52:04.109Z,-1.70
2018-02-27T18:54:31.058Z,-1.60
2018-02-27T18:56:57.394Z,-1.80
2018-02-27T18:59:23.594Z,-1.60
2018-02-27T19:01:49.809Z,-1.70
2018-02-27T19:04:17.793Z,-1.60
2018-02-27T19:06:44.084Z,-1.70
2018-02-27T19:09:10.409Z,-1.80
2018-02-27T19:11:36.714Z,-1.90
2018-02-27T19:14:03.732Z,-1.70
2018-02-27T19:16:30.096Z,-1.80
2018-02-27T19:18:56.339Z,-1.80
2018-02-27T19:21:26.858Z,-1.90
2018-02-27T19:23:53.859Z,-1.90
2018-02-27T19:26:20.161Z,-1.90
2018-02-27T19:28:46.465Z,-1.90
2018-02-27T19:31:12.764Z,-2.00
2018-02-27T19:33:39.063Z,-2.20
2018-02-27T19:36:05.401Z,-1.80
2018-02-27T19:38:31.722Z,-2.00
2018-02-27T19:40:58.043Z,-2.00
2018-02-27T19:43:28.996Z,-2.20
2018-02-27T19:45:55.323Z,-2.20
2018-02-27T19:48:21.691Z,-2.10
2018-02-27T19:50:49.580Z,-2.20
2018-02-27T19:53:17.418Z,-2.20
2018-02-27T19:55:45.824Z,-2.20
2018-02-27T19:58:12.174Z,-2.10
2018-02-27T20:00:38.507Z,-2.30
2018-02-27T20:03:05.793Z,-2.20
2018-02-27T20:05:32.822Z,-2.20
2018-02-27T20:07:59.173Z,-2.20
2018-02-27T20:10:30.465Z,-2.20
2018-02-27T20:12:58.225Z,-2.40
2018-02-27T20:15:24.582Z,-2.40
2018-02-27T20:17:57.881Z,-2.30
2018-02-27T20:20:25.490Z,-2.10
2018-02-27T20:23:02.710Z,-2.50
2018-02-27T20:25:29.341Z,-2.50
2018-02-27T20:27:55.767Z,-2.60
2018-02-27T20:30:22.111Z,-2.60
2018-02-27T20:32:48.402Z,-2.60
2018-02-27T20:35:15.059Z,-2.60
2018-02-27T20:37:41.358Z,-2.70
2018-02-27T20:40:07.725Z,-2.80
2018-02-27T20:42:35.539Z,-2.60
2018-02-27T20:45:02.718Z,-2.80
2018-02-27T20:47:28.864Z,-2.70
2018-02-27T20:49:55.175Z,-2.80
2018-02-27T20:52:21.450Z,-2.90
2018-02-27T20:54:47.724Z,-2.90
2018-02-27T20:57:16.415Z,-2.80
2018-02-27T20:59:42.575Z,-2.70
2018-02-27T21:02:08.662Z,-2.70
2018-02-27T21:04:34.754Z,-2.80
2018-02-27T21:07:00.859Z,-2.70
2018-02-27T21:09:27.138Z,-2.60
2018-02-27T21:11:53.417Z,-2.90
2018-02-27T21:14:19.700Z,-2.70
2018-02-27T21:16:46.042Z,-2.60
2018-02-27T21:19:12.381Z,-2.60
2018-02-27T21:21:38.656Z,-2.50
2018-02-27T21:24:04.946Z,-2.50
2018-02-27T21:26:32.039Z,-2.50
2018-02-27T21:28:58.414Z,-2.60
2018-02-27T21:31:24.713Z,-2.80
2018-02-27T21:33:51.090Z,-3.00
2018-02-27T21:36:17.474Z,-2.90
2018-02-27T21:38:44.861Z,-2.60
2018-02-27T21:41:21.166Z,-2.80
2018-02-27T21:43:48.056Z,-2.90
2018-02-27T21:46:14.161Z,-2.90
2018-02-27T21:48:40.325Z,-3.10
2018-02-27T21:51:12.075Z,-2.80
2018-02-27T21:53:38.201Z,-3.00
2018-02-27T21:56:04.427Z,-2.90
2018-02-27T21:58:30.633Z,-2.60
2018-02-27T22:00:56.707Z,-2.90
2018-02-27T22:03:22.838Z,-2.80
2018-02-27T22:05:48.985Z,-2.90
2018-02-27T22:08:15.815Z,-2.90
2018-02-27T22:10:42.007Z,-2.90
2018-02-27T22:13:08.134Z,-2.90
2018-02-27T22:15:34.228Z,-2.80
2018-02-27T22:18:00.389Z,-2.70
2018-02-27T22:20:27.304Z,-2.80
2018-02-27T22:22:53.396Z,-2.80
2018-02-27T22:25:19.498Z,-2.80
2018-02-27T22:27:45.703Z,-2.70
2018-02-27T22:30:11.758Z,-2.60
2018-02-27T22:32:39.924Z,-2.50
2018-02-27T22:35:06.001Z,-2.80
2018-02-27T22:37:32.097Z,-2.70
2018-02-27T22:39:58.202Z,-2.60
2018-02-27T22:42:24.278Z,-2.40
2018-02-27T22:44:50.338Z,-2.50
2018-02-27T22:47:16.469Z,-2.60
2018-02-27T22:49:42.741Z,-2.70
2018-02-27T22:52:08.810Z,-2.90
2018-02-27T22:54:34.902Z,-2.90
2018-02-27T22:57:01.120Z,-3.00
2018-02-27T22:59:27.327Z,-3.00
2018-02-27T23:01:53.472Z,-3.10
2018-02-27T23:04:19.663Z,-3.00
2018-02-27T23:06:47.648Z,-3.20
2018-02-27T23:09:17.912Z,-3.10
2018-02-27T23:11:45.824Z,-3.20
2018-02-27T23:14:12.138Z,-3.20
2018-02-27T23:16:38.281Z,-3.30
2018-02-27T23:19:04.370Z,-3.30
2018-02-27T23:21:30.451Z,-3.50
2018-02-27T23:24:00.752Z,-3.10
2018-02-27T23:26:32.949Z,-3.30
2018-02-27T23:28:59.286Z,-3.10
2018-02-27T23:31:26.514Z,-3.20
2018-02-27T23:33:54.468Z,-3.30
2018-02-27T23:36:22.656Z,-3.40
2018-02-27T23:38:48.995Z,-3.50
2018-02-27T23:41:15.304Z,-3.40
2018-02-27T23:43:41.614Z,-3.40
2018-02-27T23:46:07.901Z,-3.20
2018-02-27T23:48:34.146Z,-3.50
2018-02-27T23:51:01.162Z,-3.50
2018-02-27T23:53:27.386Z,-3.50
2018-02-27T23:55:57.131Z,-3.50
2018-02-27T23:58:23.381Z,-3.40
